createdAt,value
2022-09-23T00:00:20.785Z,-109.23
2022-09-23T00:01:17.845Z,-109.16
2022-09-23T00:02:17.787Z,-109.26
2022-09-23T00:03:17.733Z,-109.22
2022-09-23T00:04:17.726Z,-109.04
2022-09-23T00:05:17.721Z,-109.07
2022-09-23T00:06:17.697Z,-109.01
2022-09-23T00:07:17.706Z,-108.94
2022-09-23T00:08:17.668Z,-109.00
2022-09-23T00:09:17.657Z,-108.90
2022-09-23T00:10:17.638Z,-108.89
2022-09-23T00:11:17.676Z,-108.76
2022-09-23T00:12:17.618Z,-108.70
2022-09-23T00:13:17.598Z,-108.56
2022-09-23T00:14:17.588Z,-108.51
2022-09-23T00:15:17.570Z,-107.95
2022-09-23T00:16:17.591Z,-108.05
2022-09-23T00:17:17.609Z,-108.03
2022-09-23T00:18:17.530Z,-107.91
2022-09-23T00:19:20.518Z,-107.99
2022-09-23T00:20:20.519Z,-107.90
2022-09-23T00:21:17.488Z,-107.95
2022-09-23T00:22:17.480Z,-108.21
2022-09-23T00:23:17.520Z,-108.18
2022-09-23T00:24:17.452Z,-108.27
2022-09-23T00:25:17.440Z,-108.39
2022-09-23T00:26:17.425Z,-108.37
2022-09-23T00:27:17.412Z,-108.38
2022-09-23T00:28:17.401Z,-108.22
2022-09-23T00:29:17.410Z,-108.22
2022-09-23T00:30:17.373Z,-108.07
2022-09-23T00:31:17.452Z,-108.21
2022-09-23T00:32:17.344Z,-108.10
2022-09-23T00:33:17.323Z,-108.05
2022-09-23T00:34:17.365Z,-107.87
2022-09-23T00:35:17.303Z,-108.05
2022-09-23T00:36:17.295Z,-107.92
2022-09-23T00:37:17.272Z,-107.79
2022-09-23T00:38:17.267Z,-107.75
2022-09-23T00:39:20.277Z,-107.71
2022-09-23T00:40:20.287Z,-108.83
2022-09-23T00:41:17.223Z,-107.78
2022-09-23T00:42:17.206Z,-107.80
2022-09-23T00:43:17.195Z,-107.77
2022-09-23T00:44:17.207Z,-107.88
2022-09-23T00:45:17.194Z,-107.90
2022-09-23T00:46:17.182Z,-107.75
2022-09-23T00:47:17.138Z,-107.81
2022-09-23T00:48:17.126Z,-107.69
2022-09-23T00:49:17.107Z,-107.75
2022-09-23T00:50:17.120Z,-107.75
2022-09-23T00:51:17.088Z,-107.62
2022-09-23T00:52:17.078Z,-107.50
2022-09-23T00:53:17.064Z,-107.56
2022-09-23T00:54:17.039Z,-107.38
2022-09-23T00:55:17.090Z,-107.46
2022-09-23T00:56:17.028Z,-107.33
2022-09-23T00:57:16.999Z,-107.18
2022-09-23T00:58:16.989Z,-107.14
2022-09-23T00:59:19.994Z,-107.21
2022-09-23T01:00:20.040Z,-106.96
2022-09-23T01:01:16.984Z,-106.87
2022-09-23T01:02:17.001Z,-106.79
2022-09-23T01:03:16.921Z,-106.91
2022-09-23T01:04:16.903Z,-106.87
2022-09-23T01:05:16.894Z,-106.99
2022-09-23T01:06:16.910Z,-107.15
2022-09-23T01:07:16.862Z,-106.85
2022-09-23T01:08:16.849Z,-106.91
2022-09-23T01:09:16.842Z,-106.91
2022-09-23T01:10:16.825Z,-106.93
2022-09-23T01:11:16.813Z,-106.64
2022-09-23T01:12:16.833Z,-106.74
2022-09-23T01:13:16.784Z,-106.71
2022-09-23T01:14:16.794Z,-106.79
2022-09-23T01:15:16.758Z,-106.82
2022-09-23T01:16:16.827Z,-106.78
2022-09-23T01:17:16.755Z,-106.67
2022-09-23T01:18:16.714Z,-106.73
2022-09-23T01:19:19.715Z,-106.79
2022-09-23T01:20:19.754Z,-106.58
2022-09-23T01:21:16.674Z,-106.56
2022-09-23T01:22:16.666Z,-106.49
2022-09-23T01:23:16.647Z,-106.45
2022-09-23T01:24:16.635Z,-106.33
2022-09-23T01:25:16.637Z,-106.43
2022-09-23T01:26:16.635Z,-106.35
2022-09-23T01:27:16.608Z,-106.31
2022-09-23T01:28:16.584Z,-106.32
2022-09-23T01:29:16.567Z,-106.24
2022-09-23T01:30:16.580Z,-106.18
2022-09-23T01:31:16.581Z,-106.18
2022-09-23T01:32:16.527Z,-106.05
2022-09-23T01:33:16.518Z,-106.06
2022-09-23T01:34:16.531Z,-105.88
2022-09-23T01:35:16.521Z,-106.12
2022-09-23T01:36:16.469Z,-105.98
2022-09-23T01:37:16.459Z,-105.93
2022-09-23T01:38:16.453Z,-105.81
2022-09-23T01:39:19.430Z,-105.61
2022-09-23T01:40:19.529Z,-105.52
2022-09-23T01:41:16.412Z,-105.56
2022-09-23T01:42:16.389Z,-105.57
2022-09-23T01:43:16.381Z,-105.60
2022-09-23T01:44:16.360Z,-105.64
2022-09-23T01:45:16.394Z,-105.64
2022-09-23T01:46:16.510Z,-105.66
2022-09-23T01:47:16.329Z,-105.57
2022-09-23T01:48:16.347Z,-105.47
2022-09-23T01:49:16.300Z,-105.42
2022-09-23T01:50:16.291Z,-105.23
2022-09-23T01:51:16.283Z,-105.08
2022-09-23T01:52:16.282Z,-104.89
2022-09-23T01:53:16.243Z,-104.91
2022-09-23T01:54:16.232Z,-104.87
2022-09-23T01:55:16.224Z,-104.71
2022-09-23T01:56:16.235Z,-104.54
2022-09-23T01:57:16.214Z,-104.47
2022-09-23T01:58:16.184Z,-104.34
2022-09-23T01:59:19.166Z,-104.45
2022-09-23T02:00:19.164Z,-104.05
2022-09-23T02:01:16.219Z,-104.11
2022-09-23T02:02:16.195Z,-104.21
2022-09-23T02:03:16.116Z,-104.26
2022-09-23T02:04:16.097Z,-104.13
2022-09-23T02:05:16.085Z,-104.20
2022-09-23T02:06:16.066Z,-104.24
2022-09-23T02:07:16.088Z,-104.19
2022-09-23T02:08:16.037Z,-102.77
2022-09-23T02:09:16.044Z,-101.88
2022-09-23T02:10:16.017Z,-101.91
2022-09-23T02:11:16.012Z,-101.72
2022-09-23T02:12:16.018Z,-101.74
2022-09-23T02:13:16.009Z,-101.78
2022-09-23T02:14:15.965Z,-101.68
2022-09-23T02:15:15.980Z,-101.54
2022-09-23T02:16:15.969Z,-101.34
2022-09-23T02:17:15.950Z,-101.40
2022-09-23T02:18:15.941Z,-101.51
2022-09-23T02:19:18.903Z,-101.63
2022-09-23T02:20:18.893Z,-101.49
2022-09-23T02:21:15.871Z,-101.72
2022-09-23T02:22:15.858Z,-101.82
2022-09-23T02:23:15.842Z,-101.83
2022-09-23T02:24:15.853Z,-102.01
2022-09-23T02:25:15.819Z,-101.93
2022-09-23T02:26:15.801Z,-102.07
2022-09-23T02:27:15.790Z,-102.17
2022-09-23T02:28:15.801Z,-102.18
2022-09-23T02:29:15.771Z,-102.24
2022-09-23T02:30:15.741Z,-102.37
2022-09-23T02:31:15.733Z,-102.42
2022-09-23T02:32:15.720Z,-102.41
2022-09-23T02:33:15.774Z,-102.22
2022-09-23T02:34:15.696Z,-102.18
2022-09-23T02:35:15.703Z,-102.29
2022-09-23T02:36:15.664Z,-102.43
2022-09-23T02:37:15.656Z,-102.60
2022-09-23T02:38:15.634Z,-102.60
2022-09-23T02:39:18.674Z,-102.66
2022-09-23T02:40:18.668Z,-102.58
2022-09-23T02:41:15.608Z,-102.61
2022-09-23T02:42:15.587Z,-104.05
2022-09-23T02:43:15.576Z,-102.75
2022-09-23T02:44:15.555Z,-104.10
2022-09-23T02:45:15.711Z,-102.66
2022-09-23T02:46:15.596Z,-102.75
2022-09-23T02:47:15.519Z,-104.09
2022-09-23T02:48:15.507Z,-104.20
2022-09-23T02:49:15.496Z,-104.23
2022-09-23T02:50:15.477Z,-104.22
2022-09-23T02:51:15.498Z,-104.17
2022-09-23T02:52:15.447Z,-104.14
2022-09-23T02:53:15.437Z,-104.31
2022-09-23T02:54:15.420Z,-104.20
2022-09-23T02:55:15.476Z,-104.18
2022-09-23T02:56:15.397Z,-104.21
2022-09-23T02:57:15.379Z,-104.31
2022-09-23T02:58:15.373Z,-104.24
2022-09-23T02:59:18.351Z,-104.19
2022-09-23T03:00:18.380Z,-104.09
2022-09-23T03:01:15.554Z,-104.17
2022-09-23T03:02:15.369Z,-104.07
2022-09-23T03:03:15.299Z,-104.28
2022-09-23T03:04:15.281Z,-104.27
2022-09-23T03:05:15.270Z,-104.22
2022-09-23T03:06:15.260Z,-104.17
2022-09-23T03:07:15.281Z,-104.50
2022-09-23T03:08:15.233Z,-104.87
2022-09-23T03:09:15.222Z,-104.66
2022-09-23T03:10:15.202Z,-104.70
2022-09-23T03:11:15.192Z,-104.82
2022-09-23T03:12:15.185Z,-105.00
2022-09-23T03:13:15.203Z,-105.22
2022-09-23T03:14:15.152Z,-105.10
2022-09-23T03:15:15.143Z,-105.17
2022-09-23T03:16:15.309Z,-105.19
2022-09-23T03:17:15.126Z,-105.06
2022-09-23T03:18:15.145Z,-105.04
2022-09-23T03:19:18.111Z,-104.94
2022-09-23T03:20:18.088Z,-104.71
2022-09-23T03:21:15.055Z,-104.71
2022-09-23T03:22:15.047Z,-104.90
2022-09-23T03:23:15.033Z,-104.90
2022-09-23T03:24:15.047Z,-104.99
2022-09-23T03:25:15.054Z,-104.89
2022-09-23T03:26:14.990Z,-104.82
2022-09-23T03:27:14.978Z,-104.90
2022-09-23T03:28:14.977Z,-104.79
2022-09-23T03:29:14.946Z,-104.55
2022-09-23T03:30:14.934Z,-104.43
2022-09-23T03:31:15.069Z,-104.29
2022-09-23T03:32:14.907Z,-104.22
2022-09-23T03:33:14.901Z,-104.40
2022-09-23T03:34:14.877Z,-104.18
2022-09-23T03:35:14.868Z,-104.10
2022-09-23T03:36:14.847Z,-104.09
2022-09-23T03:37:14.868Z,-102.80
2022-09-23T03:38:14.835Z,-102.72
2022-09-23T03:39:17.815Z,-102.55
2022-09-23T03:40:17.854Z,-102.39
2022-09-23T03:41:14.792Z,-102.29
2022-09-23T03:42:14.799Z,-102.41
2022-09-23T03:43:14.789Z,-102.45
2022-09-23T03:44:14.750Z,-102.53
2022-09-23T03:45:14.753Z,-102.44
2022-09-23T03:46:14.788Z,-102.59
2022-09-23T03:47:14.715Z,-102.48
2022-09-23T03:48:14.724Z,-102.68
2022-09-23T03:49:14.696Z,-102.41
2022-09-23T03:50:14.664Z,-102.43
2022-09-23T03:51:14.659Z,-102.45
2022-09-23T03:52:14.644Z,-102.45
2022-09-23T03:53:14.696Z,-102.41
2022-09-23T03:54:14.612Z,-102.27
2022-09-23T03:55:14.604Z,-102.23
2022-09-23T03:56:14.584Z,-102.18
2022-09-23T03:57:14.572Z,-102.10
2022-09-23T03:58:14.556Z,-102.18
2022-09-23T03:59:17.610Z,-102.18
2022-09-23T04:00:17.544Z,-101.95
2022-09-23T04:01:14.577Z,-101.95
2022-09-23T04:02:14.566Z,-101.88
2022-09-23T04:03:14.493Z,-101.93
2022-09-23T04:04:14.474Z,-101.68
2022-09-23T04:05:14.486Z,-101.59
2022-09-23T04:06:14.445Z,-101.46
2022-09-23T04:07:14.436Z,-101.38
2022-09-23T04:08:14.416Z,-101.36
2022-09-23T04:09:14.406Z,-101.29
2022-09-23T04:10:14.594Z,-101.25
2022-09-23T04:11:14.376Z,-101.27
2022-09-23T04:12:14.365Z,-101.27
2022-09-23T04:13:14.347Z,-101.21
2022-09-23T04:14:14.336Z,-101.15
2022-09-23T04:15:14.321Z,-101.00
2022-09-23T04:16:14.392Z,-101.37
2022-09-23T04:17:14.296Z,-101.16
2022-09-23T04:18:14.282Z,-101.07
2022-09-23T04:19:17.268Z,-100.73
2022-09-23T04:20:17.270Z,-100.51
2022-09-23T04:21:14.239Z,-100.43
2022-09-23T04:22:14.248Z,-100.44
2022-09-23T04:23:14.211Z,-100.46
2022-09-23T04:24:14.190Z,-100.51
2022-09-23T04:25:14.179Z,-100.44
2022-09-23T04:26:14.190Z,-100.50
2022-09-23T04:27:14.192Z,-100.50
2022-09-23T04:28:14.140Z,-100.48
2022-09-23T04:29:14.129Z,-101.01
2022-09-23T04:30:14.111Z,-101.27
2022-09-23T04:31:14.150Z,-101.28
2022-09-23T04:32:14.080Z,-101.38
2022-09-23T04:33:14.101Z,-101.40
2022-09-23T04:34:14.082Z,-101.46
2022-09-23T04:35:14.043Z,-101.46
2022-09-23T04:36:14.034Z,-101.51
2022-09-23T04:37:14.030Z,-101.49
2022-09-23T04:38:14.004Z,-101.44
2022-09-23T04:39:17.012Z,-101.35
2022-09-23T04:40:17.009Z,-101.06
2022-09-23T04:41:13.965Z,-101.08
2022-09-23T04:42:13.944Z,-101.13
2022-09-23T04:43:13.935Z,-100.90
2022-09-23T04:44:13.948Z,-101.05
2022-09-23T04:45:13.905Z,-100.86
2022-09-23T04:46:13.978Z,-100.86
2022-09-23T04:47:13.876Z,-100.80
2022-09-23T04:48:13.867Z,-100.83
2022-09-23T04:49:13.902Z,-100.86
2022-09-23T04:50:13.832Z,-100.85
2022-09-23T04:51:13.823Z,-100.64
2022-09-23T04:52:13.805Z,-100.70
2022-09-23T04:53:13.798Z,-100.79
2022-09-23T04:54:13.777Z,-100.83
2022-09-23T04:55:13.798Z,-100.77
2022-09-23T04:56:13.747Z,-100.78
2022-09-23T04:57:13.738Z,-100.67
2022-09-23T04:58:13.740Z,-100.80
2022-09-23T04:59:16.777Z,-100.83
2022-09-23T05:00:16.709Z,-100.77
2022-09-23T05:01:13.711Z,-100.82
2022-09-23T05:02:13.704Z,-101.06
2022-09-23T05:03:13.650Z,-101.06
2022-09-23T05:04:13.638Z,-101.10
2022-09-23T05:05:13.780Z,-101.13
2022-09-23T05:06:13.611Z,-101.15
2022-09-23T05:07:13.589Z,-101.21
2022-09-23T05:08:13.587Z,-101.26
2022-09-23T05:09:13.560Z,-101.25
2022-09-23T05:10:13.568Z,-101.11
2022-09-23T05:11:13.560Z,-101.26
2022-09-23T05:12:13.531Z,-101.04
2022-09-23T05:13:13.511Z,-101.09
2022-09-23T05:14:13.503Z,-101.15
2022-09-23T05:15:13.482Z,-101.05
2022-09-23T05:16:13.587Z,-101.07
2022-09-23T05:17:13.453Z,-101.30
2022-09-23T05:18:15.978Z,-101.32
2022-09-23T05:19:16.433Z,-101.32
2022-09-23T05:20:16.430Z,-101.08
2022-09-23T05:21:13.405Z,-101.24
2022-09-23T05:22:13.434Z,-101.40
2022-09-23T05:23:13.374Z,-101.51
2022-09-23T05:24:13.356Z,-101.57
2022-09-23T05:25:13.345Z,-101.74
2022-09-23T05:26:13.335Z,-101.65
2022-09-23T05:27:13.314Z,-101.47
2022-09-23T05:28:13.325Z,-101.65
2022-09-23T05:29:13.286Z,-101.53
2022-09-23T05:30:13.279Z,-101.38
2022-09-23T05:31:18.703Z,-101.66
2022-09-23T05:32:14.247Z,-101.51
2022-09-23T05:33:13.275Z,-101.63
2022-09-23T05:34:13.227Z,-101.59
2022-09-23T05:35:13.223Z,-101.90
2022-09-23T05:36:13.195Z,-102.07
2022-09-23T05:37:13.178Z,-102.22
2022-09-23T05:38:13.165Z,-102.42
2022-09-23T05:39:16.179Z,-102.52
2022-09-23T05:40:16.202Z,-101.93
2022-09-23T05:41:13.126Z,-102.21
2022-09-23T05:42:13.107Z,-102.41
2022-09-23T05:43:13.089Z,-102.56
2022-09-23T05:44:13.106Z,-102.70
2022-09-23T05:45:13.073Z,-102.52
2022-09-23T05:46:13.249Z,-102.50
2022-09-23T05:47:13.030Z,-102.80
2022-09-23T05:48:13.031Z,-104.39
2022-09-23T05:49:13.072Z,-104.41
2022-09-23T05:50:12.989Z,-104.46
2022-09-23T05:51:13.002Z,-104.50
2022-09-23T05:52:13.146Z,-104.34
2022-09-23T05:53:12.950Z,-104.35
2022-09-23T05:54:12.942Z,-104.35
2022-09-23T05:55:12.921Z,-104.16
2022-09-23T05:56:12.911Z,-104.15
2022-09-23T05:57:12.902Z,-104.17
2022-09-23T05:58:12.918Z,-104.05
2022-09-23T05:59:15.869Z,-104.31
2022-09-23T06:00:15.872Z,-104.10
2022-09-23T06:01:12.843Z,-104.16
2022-09-23T06:02:12.903Z,-104.39
2022-09-23T06:03:12.873Z,-102.73
2022-09-23T06:04:12.833Z,-102.62
2022-09-23T06:05:12.793Z,-104.37
2022-09-23T06:06:12.775Z,-104.71
2022-09-23T06:07:12.753Z,-105.13
2022-09-23T06:08:12.748Z,-105.23
2022-09-23T06:09:12.758Z,-105.32
2022-09-23T06:10:12.732Z,-105.52
2022-09-23T06:11:12.695Z,-105.33
2022-09-23T06:12:12.687Z,-105.32
2022-09-23T06:13:12.700Z,-105.28
2022-09-23T06:14:12.663Z,-105.25
2022-09-23T06:15:12.644Z,-105.17
2022-09-23T06:16:12.685Z,-105.15
2022-09-23T06:17:12.616Z,-104.99
2022-09-23T06:18:12.627Z,-105.25
2022-09-23T06:19:15.597Z,-105.57
2022-09-23T06:20:15.617Z,-105.72
2022-09-23T06:21:12.558Z,-106.30
2022-09-23T06:22:12.607Z,-106.59
2022-09-23T06:23:12.537Z,-106.80
2022-09-23T06:24:17.177Z,-106.71
2022-09-23T06:25:13.507Z,-107.10
2022-09-23T06:26:12.497Z,-107.44
2022-09-23T06:27:12.478Z,-107.56
2022-09-23T06:28:12.534Z,-107.76
2022-09-23T06:29:12.480Z,-107.88
2022-09-23T06:30:12.440Z,-108.28
2022-09-23T06:31:13.768Z,-108.68
2022-09-23T06:32:12.410Z,-109.23
2022-09-23T06:33:12.400Z,-109.65
2022-09-23T06:34:13.659Z,-110.13
2022-09-23T06:35:23.746Z,-110.80
2022-09-23T06:36:15.790Z,-111.38
2022-09-23T06:37:19.752Z,-112.15
2022-09-23T06:38:13.330Z,-112.70
2022-09-23T06:39:15.587Z,-113.10
2022-09-23T06:40:15.334Z,-113.46
2022-09-23T06:41:12.293Z,-114.00
2022-09-23T06:42:12.332Z,-114.62
2022-09-23T06:43:12.261Z,-115.45
2022-09-23T06:44:12.254Z,-115.52
2022-09-23T06:45:12.244Z,-116.06
2022-09-23T06:46:12.264Z,-116.44
2022-09-23T06:47:12.214Z,-117.01
2022-09-23T06:48:12.224Z,-117.53
2022-09-23T06:49:12.215Z,-118.21
2022-09-23T06:50:12.174Z,-118.65
2022-09-23T06:51:12.155Z,-119.18
2022-09-23T06:52:12.167Z,-119.23
2022-09-23T06:53:12.172Z,-120.02
2022-09-23T06:54:12.133Z,-120.23
2022-09-23T06:55:12.106Z,-120.31
2022-09-23T06:56:12.099Z,-121.08
2022-09-23T06:57:12.075Z,-121.28
2022-09-23T06:58:12.066Z,-121.79
2022-09-23T06:59:15.070Z,-122.35
2022-09-23T07:00:15.081Z,-122.10
2022-09-23T07:01:12.037Z,-122.61
2022-09-23T07:02:12.168Z,-123.06
2022-09-23T07:03:11.999Z,-123.43
2022-09-23T07:04:11.978Z,-123.23
2022-09-23T07:05:11.990Z,-123.66
2022-09-23T07:06:11.962Z,-124.05
2022-09-23T07:07:11.969Z,-124.36
2022-09-23T07:08:11.957Z,-124.72
2022-09-23T07:09:11.911Z,-124.81
2022-09-23T07:10:11.922Z,-125.52
2022-09-23T07:11:11.889Z,-125.44
2022-09-23T07:12:11.913Z,-125.58
2022-09-23T07:13:16.030Z,-125.96
2022-09-23T07:14:11.870Z,-126.03
2022-09-23T07:15:11.830Z,-126.03
2022-09-23T07:16:11.859Z,-127.03
2022-09-23T07:17:11.802Z,-127.11
2022-09-23T07:18:11.789Z,-127.06
2022-09-23T07:19:14.830Z,-126.76
2022-09-23T07:20:14.775Z,-126.03
2022-09-23T07:21:11.742Z,-126.03
2022-09-23T07:22:11.737Z,-126.83
2022-09-23T07:23:11.723Z,-126.91
2022-09-23T07:24:11.705Z,-126.03
2022-09-23T07:25:11.714Z,-126.03
2022-09-23T07:26:11.716Z,-125.97
2022-09-23T07:27:11.665Z,-126.03
2022-09-23T07:28:11.655Z,-126.90
2022-09-23T07:29:11.635Z,-127.23
2022-09-23T07:30:22.786Z,-126.72
2022-09-23T07:31:12.880Z,-126.83
2022-09-23T07:32:14.230Z,-126.96
2022-09-23T07:33:26.839Z,-126.03
2022-09-23T07:34:12.579Z,-126.03
2022-09-23T07:35:11.727Z,-126.03
2022-09-23T07:36:11.548Z,-126.03
2022-09-23T07:37:11.530Z,-126.80
2022-09-23T07:38:11.520Z,-127.21
2022-09-23T07:39:14.497Z,-127.24
2022-09-23T07:40:14.593Z,-127.24
2022-09-23T07:41:11.468Z,-127.24
2022-09-23T07:42:11.468Z,-127.24
2022-09-23T07:43:11.445Z,-127.24
2022-09-23T07:44:11.438Z,-128.36
2022-09-23T07:45:11.422Z,-127.24
2022-09-23T07:46:11.497Z,-128.39
2022-09-23T07:47:11.390Z,-128.46
2022-09-23T07:48:11.380Z,-128.46
2022-09-23T07:49:11.392Z,-128.46
2022-09-23T07:50:11.351Z,-129.68
2022-09-23T07:51:11.360Z,-129.68
2022-09-23T07:52:11.350Z,-129.68
2022-09-23T07:53:11.302Z,-129.68
2022-09-23T07:54:11.320Z,-130.90
2022-09-23T07:55:11.287Z,-130.90
2022-09-23T07:56:11.262Z,-130.90
2022-09-23T07:57:11.272Z,-130.90
2022-09-23T07:58:11.250Z,-130.90
2022-09-23T07:59:14.222Z,-130.90
2022-09-23T08:00:14.223Z,-130.90
2022-09-23T08:01:11.245Z,-132.12
2022-09-23T08:02:11.217Z,-132.12
2022-09-23T08:03:11.238Z,-132.12
2022-09-23T08:04:11.170Z,-132.12
2022-09-23T08:05:11.177Z,-132.12
2022-09-23T08:06:11.138Z,-133.34
2022-09-23T08:07:11.181Z,-133.34
2022-09-23T08:08:11.109Z,-133.34
2022-09-23T08:09:11.106Z,-133.34
2022-09-23T08:10:11.078Z,-134.56
2022-09-23T08:11:11.068Z,-134.56
2022-09-23T08:12:15.802Z,-135.77
2022-09-23T08:13:12.065Z,-135.77
2022-09-23T08:14:11.040Z,-135.77
2022-09-23T08:15:11.182Z,-135.77
2022-09-23T08:16:11.052Z,-135.77
2022-09-23T08:17:11.007Z,-135.77
2022-09-23T08:18:10.969Z,-135.77
2022-09-23T08:19:13.974Z,-136.99
2022-09-23T08:20:14.224Z,-135.77
2022-09-23T08:21:10.929Z,-136.99
2022-09-23T08:22:10.926Z,-136.99
2022-09-23T08:23:10.908Z,-136.99
2022-09-23T08:24:10.903Z,-136.99
2022-09-23T08:25:10.890Z,-136.99
2022-09-23T08:26:19.414Z,-138.21
2022-09-23T08:27:11.863Z,-138.21
2022-09-23T08:28:10.860Z,-138.21
2022-09-23T08:29:10.830Z,-138.21
2022-09-23T08:30:10.831Z,-138.21
2022-09-23T08:31:10.847Z,-138.21
2022-09-23T08:32:10.834Z,-138.21
2022-09-23T08:33:10.794Z,-138.21
2022-09-23T08:34:10.775Z,-138.21
2022-09-23T08:35:10.761Z,-139.43
2022-09-23T08:36:10.743Z,-139.43
2022-09-23T08:37:10.759Z,-139.43
2022-09-23T08:38:10.728Z,-139.43
2022-09-23T08:39:13.703Z,-139.43
2022-09-23T08:40:13.766Z,-139.43
2022-09-23T08:41:10.678Z,-139.43
2022-09-23T08:42:10.704Z,-139.43
2022-09-23T08:43:10.645Z,-140.65
2022-09-23T08:44:10.636Z,-140.65
2022-09-23T08:45:10.635Z,-140.65
2022-09-23T08:46:10.681Z,-140.65
2022-09-23T08:47:10.634Z,-140.65
2022-09-23T08:48:12.948Z,-141.87
2022-09-23T08:49:10.595Z,-141.87
2022-09-23T08:50:10.591Z,-141.87
2022-09-23T08:51:10.539Z,-143.08
2022-09-23T08:52:10.528Z,-143.08
2022-09-23T08:53:10.509Z,-143.08
2022-09-23T08:54:10.503Z,-143.08
2022-09-23T08:55:10.548Z,-143.08
2022-09-23T08:56:10.480Z,-144.30
2022-09-23T08:57:10.453Z,-144.30
2022-09-23T08:58:26.563Z,-144.30
2022-09-23T08:59:14.443Z,-144.30
2022-09-23T09:00:13.500Z,-144.30
2022-09-23T09:01:10.473Z,-144.30
2022-09-23T09:02:10.437Z,-144.30
2022-09-23T09:03:10.371Z,-144.30
2022-09-23T09:04:12.628Z,-145.52
2022-09-23T09:05:10.352Z,-145.52
2022-09-23T09:06:10.390Z,-145.52
2022-09-23T09:07:35.134Z,-146.74
2022-09-23T09:08:11.320Z,-145.52
2022-09-23T09:09:10.338Z,-146.74
2022-09-23T09:10:10.284Z,-145.52
2022-09-23T09:11:10.275Z,-146.74
2022-09-23T09:12:10.285Z,-146.74
2022-09-23T09:13:10.242Z,-146.74
2022-09-23T09:14:10.245Z,-147.96
2022-09-23T09:15:10.215Z,-147.96
2022-09-23T09:16:10.262Z,-146.74
2022-09-23T09:17:10.225Z,-146.74
2022-09-23T09:18:10.176Z,-146.74
2022-09-23T09:19:13.156Z,-147.96
2022-09-23T09:20:13.184Z,-147.96
2022-09-23T09:21:10.137Z,-147.96
2022-09-23T09:22:10.124Z,-147.96
2022-09-23T09:23:10.154Z,-147.96
2022-09-23T09:24:10.156Z,-147.96
2022-09-23T09:25:10.080Z,-147.96
2022-09-23T09:26:10.069Z,-147.96
2022-09-23T09:27:10.053Z,-147.96
2022-09-23T09:28:10.037Z,-147.96
2022-09-23T09:29:30.763Z,-147.96
2022-09-23T09:30:11.018Z,-147.96
2022-09-23T09:31:10.022Z,-149.17
2022-09-23T09:32:09.992Z,-149.17
2022-09-23T09:33:09.971Z,-149.17
2022-09-23T09:34:09.956Z,-149.17
2022-09-23T09:35:09.974Z,-150.39
2022-09-23T09:36:09.930Z,-150.39
2022-09-23T09:37:09.913Z,-150.39
2022-09-23T09:38:09.903Z,-150.39
2022-09-23T09:39:12.925Z,-150.39
2022-09-23T09:40:12.956Z,-150.39
2022-09-23T09:41:09.864Z,-150.39
2022-09-23T09:42:09.855Z,-151.61
2022-09-23T09:43:09.994Z,-151.61
2022-09-23T09:44:09.864Z,-151.61
2022-09-23T09:45:09.815Z,-152.83
2022-09-23T09:46:09.916Z,-151.61
2022-09-23T09:47:09.796Z,-152.83
2022-09-23T09:48:09.766Z,-152.83
2022-09-23T09:49:09.830Z,-152.83
2022-09-23T09:50:09.990Z,-151.61
2022-09-23T09:51:09.843Z,-152.83
2022-09-23T09:52:09.717Z,-152.83
2022-09-23T09:53:09.646Z,-152.83
2022-09-23T09:54:09.627Z,-152.83
2022-09-23T09:55:09.653Z,-152.83
2022-09-23T09:56:09.608Z,-152.83
2022-09-23T09:57:09.610Z,-154.04
2022-09-23T09:58:09.576Z,-154.04
2022-09-23T09:59:12.566Z,-154.04
2022-09-23T10:00:12.606Z,-154.04
2022-09-23T10:01:09.590Z,-154.04
2022-09-23T10:02:09.526Z,-154.04
2022-09-23T10:03:09.546Z,-154.04
2022-09-23T10:04:09.525Z,-154.04
2022-09-23T10:05:09.495Z,-155.26
2022-09-23T10:06:09.497Z,-155.26
2022-09-23T10:07:09.465Z,-155.26
2022-09-23T10:08:09.437Z,-155.26
2022-09-23T10:09:09.526Z,-155.26
2022-09-23T10:10:22.252Z,-155.26
2022-09-23T10:11:10.406Z,-155.26
2022-09-23T10:12:09.387Z,-155.26
2022-09-23T10:13:09.365Z,-155.26
2022-09-23T10:14:09.362Z,-155.26
2022-09-23T10:15:09.345Z,-155.26
2022-09-23T10:16:09.355Z,-155.26
2022-09-23T10:17:09.319Z,-155.26
2022-09-23T10:18:09.297Z,-155.26
2022-09-23T10:19:12.279Z,-155.26
2022-09-23T10:20:12.315Z,-155.26
2022-09-23T10:21:09.259Z,-155.26
2022-09-23T10:22:09.246Z,-155.26
2022-09-23T10:23:09.238Z,-155.26
2022-09-23T10:24:09.261Z,-155.26
2022-09-23T10:25:09.210Z,-156.48
2022-09-23T10:26:09.181Z,-156.48
2022-09-23T10:27:09.180Z,-156.48
2022-09-23T10:28:09.172Z,-156.48
2022-09-23T10:29:09.145Z,-156.48
2022-09-23T10:30:09.182Z,-156.48
2022-09-23T10:31:09.160Z,-156.48
2022-09-23T10:32:09.102Z,-156.48
2022-09-23T10:33:09.095Z,-156.48
2022-09-23T10:34:09.073Z,-156.48
2022-09-23T10:35:09.099Z,-156.48
2022-09-23T10:36:09.097Z,-156.48
2022-09-23T10:37:09.039Z,-156.48
2022-09-23T10:38:09.024Z,-156.48
2022-09-23T10:39:12.024Z,-156.48
2022-09-23T10:40:12.090Z,-156.48
2022-09-23T10:42:09.033Z,-156.48
2022-09-23T10:43:08.962Z,-156.48
2022-09-23T10:44:08.954Z,-156.48
2022-09-23T10:45:08.933Z,-156.48
2022-09-23T10:46:08.984Z,-156.48
2022-09-23T10:47:08.917Z,-156.48
2022-09-23T10:48:08.956Z,-157.70
2022-09-23T10:49:08.876Z,-156.48
2022-09-23T10:50:08.870Z,-157.70
2022-09-23T10:51:08.858Z,-157.70
2022-09-23T10:52:08.839Z,-157.70
2022-09-23T10:53:08.830Z,-157.70
2022-09-23T10:54:08.879Z,-157.70
2022-09-23T10:55:08.837Z,-157.70
2022-09-23T10:56:08.803Z,-157.70
2022-09-23T10:57:08.783Z,-157.70
2022-09-23T10:58:08.776Z,-157.70
2022-09-23T10:59:11.794Z,-157.70
2022-09-23T11:00:11.749Z,-157.70
2022-09-23T11:01:08.814Z,-157.70
2022-09-23T11:02:08.709Z,-157.70
2022-09-23T11:03:08.709Z,-157.70
2022-09-23T11:04:09.126Z,-157.70
2022-09-23T11:05:08.812Z,-157.70
2022-09-23T11:06:08.651Z,-157.70
2022-09-23T11:07:08.648Z,-157.70
2022-09-23T11:08:08.644Z,-157.70
2022-09-23T11:09:08.623Z,-157.70
2022-09-23T11:10:18.448Z,-157.70
2022-09-23T11:11:09.772Z,-157.70
2022-09-23T11:12:08.587Z,-157.70
2022-09-23T11:13:08.575Z,-157.70
2022-09-23T11:14:08.618Z,-158.91
2022-09-23T11:15:08.549Z,-158.91
2022-09-23T11:16:08.651Z,-157.70
2022-09-23T11:17:08.641Z,-157.70
2022-09-23T11:18:08.508Z,-158.91
2022-09-23T11:19:11.499Z,-157.70
2022-09-23T11:20:11.507Z,-157.70
2022-09-23T11:21:08.464Z,-157.70
2022-09-23T11:22:08.457Z,-157.70
2022-09-23T11:23:08.486Z,-157.70
2022-09-23T11:24:08.529Z,-157.70
2022-09-23T11:25:08.406Z,-157.70
2022-09-23T11:26:08.395Z,-157.70
2022-09-23T11:27:08.393Z,-157.70
2022-09-23T11:28:17.244Z,-157.70
2022-09-23T11:29:08.377Z,-158.91
2022-09-23T11:30:08.345Z,-157.70
2022-09-23T11:31:08.430Z,-158.91
2022-09-23T11:32:08.332Z,-158.91
2022-09-23T11:33:08.318Z,-158.91
2022-09-23T11:34:08.506Z,-158.91
2022-09-23T11:35:08.290Z,-158.91
2022-09-23T11:36:08.269Z,-158.91
2022-09-23T11:37:08.260Z,-158.91
2022-09-23T11:38:08.262Z,-158.91
2022-09-23T11:39:11.272Z,-158.91
2022-09-23T11:40:11.468Z,-158.91
2022-09-23T11:41:08.277Z,-158.91
2022-09-23T11:42:08.205Z,-157.70
2022-09-23T11:43:08.196Z,-157.70
2022-09-23T11:44:08.204Z,-158.91
2022-09-23T11:45:08.156Z,-158.91
2022-09-23T11:46:08.283Z,-158.91
2022-09-23T11:47:08.135Z,-158.91
2022-09-23T11:48:08.108Z,-158.91
2022-09-23T11:49:08.106Z,-158.91
2022-09-23T11:50:08.089Z,-158.91
2022-09-23T11:51:08.079Z,-158.91
2022-09-23T11:52:08.089Z,-158.91
2022-09-23T11:53:08.103Z,-158.91
2022-09-23T11:54:08.167Z,-158.91
2022-09-23T11:55:18.736Z,-158.91
2022-09-23T11:56:09.012Z,-158.91
2022-09-23T11:57:08.024Z,-160.13
2022-09-23T11:58:16.787Z,-160.13
2022-09-23T11:59:12.169Z,-160.13
2022-09-23T12:00:11.007Z,-160.13
2022-09-23T12:01:07.987Z,-160.13
2022-09-23T12:02:18.311Z,-160.13
2022-09-23T12:03:09.110Z,-160.13
2022-09-23T12:04:16.931Z,-160.13
2022-09-23T12:05:08.999Z,-160.13
2022-09-23T12:06:07.883Z,-160.13